sensor_id;sensor_type;location;lat;lon;timestamp;pressure;altitude;pressure_sealevel;temperature;humidity
54512;BME280;40419;47.438;19.026;2022-10-16T00:01:26;100321.63;;;13.16;95.80
54512;BME280;40419;47.438;19.026;2022-10-16T00:03:52;100325.38;;;13.15;98.29
54512;BME280;40419;47.438;19.026;2022-10-16T00:06:21;100309.47;;;13.11;98.88
54512;BME280;40419;47.438;19.026;2022-10-16T00:08:50;100311.56;;;13.16;97.71
54512;BME280;40419;47.438;19.026;2022-10-16T00:11:24;100310.31;;;13.05;95.01
54512;BME280;40419;47.438;19.026;2022-10-16T00:13:54;100310.09;;;13.07;95.05
54512;BME280;40419;47.438;19.026;2022-10-16T00:16:20;100310.97;;;13.07;96.06
54512;BME280;40419;47.438;19.026;2022-10-16T00:18:46;100304.47;;;13.08;98.07
54512;BME280;40419;47.438;19.026;2022-10-16T00:21:23;100306.78;;;13.05;96.65
54512;BME280;40419;47.438;19.026;2022-10-16T00:23:56;100313.03;;;13.05;97.36
54512;BME280;40419;47.438;19.026;2022-10-16T00:26:29;100305.09;;;12.97;95.76
54512;BME280;40419;47.438;19.026;2022-10-16T00:28:55;100314.91;;;12.98;95.20
54512;BME280;40419;47.438;19.026;2022-10-16T00:31:26;100318.28;;;13.00;96.28
54512;BME280;40419;47.438;19.026;2022-10-16T00:33:57;100319.09;;;13.01;95.37
54512;BME280;40419;47.438;19.026;2022-10-16T00:36:26;100320.38;;;13.05;94.64
54512;BME280;40419;47.438;19.026;2022-10-16T00:38:56;100317.00;;;13.03;95.54
54512;BME280;40419;47.438;19.026;2022-10-16T00:41:29;100322.84;;;13.00;95.41
54512;BME280;40419;47.438;19.026;2022-10-16T00:44:03;100323.25;;;12.97;95.45
54512;BME280;40419;47.438;19.026;2022-10-16T00:51:45;100319.91;;;12.74;100.00
54512;BME280;40419;47.438;19.026;2022-10-16T00:54:17;100327.66;;;12.77;100.00
54512;BME280;40419;47.438;19.026;2022-10-16T00:56:43;100325.75;;;12.71;99.65
54512;BME280;40419;47.438;19.026;2022-10-16T00:59:20;100330.31;;;12.64;100.00
54512;BME280;40419;47.438;19.026;2022-10-16T01:01:56;100339.09;;;12.59;100.00
54512;BME280;40419;47.438;19.026;2022-10-16T01:04:25;100339.75;;;12.68;98.77
54512;BME280;40419;47.438;19.026;2022-10-16T01:10:14;100347.59;;;12.43;99.81
54512;BME280;40419;47.438;19.026;2022-10-16T01:13:05;100345.31;;;12.47;99.42
54512;BME280;40419;47.438;19.026;2022-10-16T01:23:36;100349.56;;;12.14;100.00
54512;BME280;40419;47.438;19.026;2022-10-16T01:31:48;100351.66;;;11.84;100.00
54512;BME280;40419;47.438;19.026;2022-10-16T01:34:22;100356.81;;;11.72;100.00
54512;BME280;40419;47.438;19.026;2022-10-16T01:36:56;100351.31;;;11.65;100.00
54512;BME280;40419;47.438;19.026;2022-10-16T01:39:33;100352.00;;;11.74;100.00
54512;BME280;40419;47.438;19.026;2022-10-16T01:42:04;100363.91;;;11.73;100.00
54512;BME280;40419;47.438;19.026;2022-10-16T01:44:34;100352.75;;;11.61;100.00
54512;BME280;40419;47.438;19.026;2022-10-16T01:47:04;100366.06;;;11.56;100.00
54512;BME280;40419;47.438;19.026;2022-10-16T01:49:33;100374.34;;;11.48;100.00
54512;BME280;40419;47.438;19.026;2022-10-16T01:52:05;100375.38;;;11.47;100.00
54512;BME280;40419;47.438;19.026;2022-10-16T01:54:37;100374.94;;;11.43;100.00
54512;BME280;40419;47.438;19.026;2022-10-16T01:57:06;100377.25;;;11.46;100.00
54512;BME280;40419;47.438;19.026;2022-10-16T01:59:42;100366.09;;;11.34;100.00
54512;BME280;40419;47.438;19.026;2022-10-16T02:02:10;100376.56;;;11.38;100.00
54512;BME280;40419;47.438;19.026;2022-10-16T02:07:13;100379.94;;;11.18;100.00
54512;BME280;40419;47.438;19.026;2022-10-16T02:09:39;100368.25;;;11.17;100.00
54512;BME280;40419;47.438;19.026;2022-10-16T02:12:19;100384.13;;;11.21;100.00
54512;BME280;40419;47.438;19.026;2022-10-16T02:14:49;100385.78;;;11.22;100.00
54512;BME280;40419;47.438;19.026;2022-10-16T02:17:18;100386.31;;;11.10;100.00
54512;BME280;40419;47.438;19.026;2022-10-16T02:19:48;100385.16;;;11.20;100.00
54512;BME280;40419;47.438;19.026;2022-10-16T02:22:23;100383.78;;;11.30;100.00
54512;BME280;40419;47.438;19.026;2022-10-16T02:24:58;100382.25;;;11.21;100.00
54512;BME280;40419;47.438;19.026;2022-10-16T02:30:19;100377.72;;;11.28;100.00
54512;BME280;40419;47.438;19.026;2022-10-16T02:32:49;100387.94;;;11.26;100.00
54512;BME280;40419;47.438;19.026;2022-10-16T02:35:19;100387.03;;;11.19;100.00
54512;BME280;40419;47.438;19.026;2022-10-16T02:37:47;100379.72;;;11.20;100.00
54512;BME280;40419;47.438;19.026;2022-10-16T02:40:21;100389.34;;;11.22;100.00
54512;BME280;40419;47.438;19.026;2022-10-16T02:42:51;100390.19;;;11.23;100.00
54512;BME280;40419;47.438;19.026;2022-10-16T02:45:20;100388.34;;;11.23;100.00
54512;BME280;40419;47.438;19.026;2022-10-16T02:47:48;100394.78;;;11.22;100.00
54512;BME280;40419;47.438;19.026;2022-10-16T02:50:13;100388.25;;;11.16;100.00
54512;BME280;40419;47.438;19.026;2022-10-16T02:52:42;100388.84;;;11.12;100.00
54512;BME280;40419;47.438;19.026;2022-10-16T02:55:10;100394.25;;;11.12;100.00
54512;BME280;40419;47.438;19.026;2022-10-16T02:57:35;100400.06;;;11.09;100.00
54512;BME280;40419;47.438;19.026;2022-10-16T03:00:04;100400.84;;;11.03;100.00
54512;BME280;40419;47.438;19.026;2022-10-16T03:02:32;100406.06;;;11.04;100.00
54512;BME280;40419;47.438;19.026;2022-10-16T03:05:00;100408.13;;;11.02;100.00
54512;BME280;40419;47.438;19.026;2022-10-16T03:07:28;100410.31;;;10.92;100.00
54512;BME280;40419;47.438;19.026;2022-10-16T03:09:53;100397.97;;;10.89;100.00
54512;BME280;40419;47.438;19.026;2022-10-16T03:12:23;100397.41;;;10.94;100.00
54512;BME280;40419;47.438;19.026;2022-10-16T03:14:51;100397.28;;;11.02;100.00
54512;BME280;40419;47.438;19.026;2022-10-16T03:17:24;100409.06;;;10.94;100.00
54512;BME280;40419;47.438;19.026;2022-10-16T03:19:52;100407.66;;;10.98;100.00
54512;BME280;40419;47.438;19.026;2022-10-16T03:22:27;100407.59;;;10.92;100.00
54512;BME280;40419;47.438;19.026;2022-10-16T03:24:53;100415.34;;;10.95;100.00
54512;BME280;40419;47.438;19.026;2022-10-16T03:27:18;100412.44;;;10.96;100.00
54512;BME280;40419;47.438;19.026;2022-10-16T03:29:44;100418.25;;;10.93;100.00
54512;BME280;40419;47.438;19.026;2022-10-16T03:32:09;100422.44;;;10.96;100.00
54512;BME280;40419;47.438;19.026;2022-10-16T03:34:35;100426.09;;;10.88;100.00
54512;BME280;40419;47.438;19.026;2022-10-16T03:37:02;100425.25;;;10.88;100.00
54512;BME280;40419;47.438;19.026;2022-10-16T03:39:30;100418.16;;;10.87;100.00
54512;BME280;40419;47.438;19.026;2022-10-16T03:41:56;100430.81;;;10.79;100.00
54512;BME280;40419;47.438;19.026;2022-10-16T03:44:21;100429.50;;;10.75;100.00
54512;BME280;40419;47.438;19.026;2022-10-16T03:46:47;100444.16;;;10.81;100.00
54512;BME280;40419;47.438;19.026;2022-10-16T03:49:12;100438.94;;;10.79;100.00
54512;BME280;40419;47.438;19.026;2022-10-16T03:51:40;100448.09;;;10.63;100.00
54512;BME280;40419;47.438;19.026;2022-10-16T03:54:09;100440.22;;;10.69;100.00
54512;BME280;40419;47.438;19.026;2022-10-16T03:56:38;100432.03;;;10.62;100.00
54512;BME280;40419;47.438;19.026;2022-10-16T03:59:03;100435.78;;;10.61;100.00
54512;BME280;40419;47.438;19.026;2022-10-16T04:01:29;100440.22;;;10.69;100.00
54512;BME280;40419;47.438;19.026;2022-10-16T04:03:57;100443.50;;;10.64;100.00
54512;BME280;40419;47.438;19.026;2022-10-16T04:06:22;100438.78;;;10.66;100.00
54512;BME280;40419;47.438;19.026;2022-10-16T04:08:53;100458.75;;;10.65;100.00
54512;BME280;40419;47.438;19.026;2022-10-16T04:11:20;100453.44;;;10.57;100.00
54512;BME280;40419;47.438;19.026;2022-10-16T04:13:46;100458.38;;;10.53;100.00
54512;BME280;40419;47.438;19.026;2022-10-16T04:16:11;100456.25;;;10.49;100.00
54512;BME280;40419;47.438;19.026;2022-10-16T04:18:39;100459.88;;;10.56;100.00
54512;BME280;40419;47.438;19.026;2022-10-16T04:21:11;100461.75;;;10.40;100.00
54512;BME280;40419;47.438;19.026;2022-10-16T04:23:38;100469.13;;;10.46;100.00
54512;BME280;40419;47.438;19.026;2022-10-16T04:26:11;100457.19;;;10.41;100.00
54512;BME280;40419;47.438;19.026;2022-10-16T04:28:41;100452.31;;;10.51;100.00
54512;BME280;40419;47.438;19.026;2022-10-16T04:31:12;100457.63;;;10.44;100.00
54512;BME280;40419;47.438;19.026;2022-10-16T04:33:44;100457.38;;;10.39;100.00
54512;BME280;40419;47.438;19.026;2022-10-16T04:36:09;100449.31;;;10.46;100.00
54512;BME280;40419;47.438;19.026;2022-10-16T04:38:35;100456.31;;;10.25;100.00
54512;BME280;40419;47.438;19.026;2022-10-16T04:41:06;100456.31;;;10.25;100.00
54512;BME280;40419;47.438;19.026;2022-10-16T04:43:36;100457.50;;;10.23;100.00
54512;BME280;40419;47.438;19.026;2022-10-16T04:46:02;100464.25;;;10.27;100.00
54512;BME280;40419;47.438;19.026;2022-10-16T04:48:30;100463.34;;;10.35;100.00
54512;BME280;40419;47.438;19.026;2022-10-16T04:50:58;100467.88;;;10.19;100.00
54512;BME280;40419;47.438;19.026;2022-10-16T04:53:23;100473.66;;;10.16;100.00
54512;BME280;40419;47.438;19.026;2022-10-16T04:55:56;100471.59;;;10.18;100.00
54512;BME280;40419;47.438;19.026;2022-10-16T04:58:22;100486.28;;;10.24;100.00
54512;BME280;40419;47.438;19.026;2022-10-16T05:00:48;100481.94;;;10.29;100.00
54512;BME280;40419;47.438;19.026;2022-10-16T05:03:15;100481.59;;;10.18;100.00
54512;BME280;40419;47.438;19.026;2022-10-16T05:05:45;100480.28;;;10.14;100.00
54512;BME280;40419;47.438;19.026;2022-10-16T05:08:12;100485.22;;;10.10;100.00
54512;BME280;40419;47.438;19.026;2022-10-16T05:10:38;100473.19;;;10.13;100.00
54512;BME280;40419;47.438;19.026;2022-10-16T05:13:04;100473.84;;;10.15;100.00
54512;BME280;40419;47.438;19.026;2022-10-16T05:15:29;100480.19;;;10.22;100.00
54512;BME280;40419;47.438;19.026;2022-10-16T05:17:57;100495.31;;;10.16;100.00
54512;BME280;40419;47.438;19.026;2022-10-16T05:20:27;100486.16;;;10.17;100.00
54512;BME280;40419;47.438;19.026;2022-10-16T05:22:55;100492.97;;;10.13;100.00
54512;BME280;40419;47.438;19.026;2022-10-16T05:25:23;100492.88;;;10.21;100.00
54512;BME280;40419;47.438;19.026;2022-10-16T05:27:51;100493.72;;;10.22;100.00
54512;BME280;40419;47.438;19.026;2022-10-16T05:30:17;100501.38;;;10.18;100.00
54512;BME280;40419;47.438;19.026;2022-10-16T05:32:49;100494.75;;;10.21;100.00
54512;BME280;40419;47.438;19.026;2022-10-16T05:35:20;100506.03;;;10.24;100.00
54512;BME280;40419;47.438;19.026;2022-10-16T05:37:46;100498.78;;;10.40;100.00
54512;BME280;40419;47.438;19.026;2022-10-16T05:40:15;100497.59;;;10.42;100.00
54512;BME280;40419;47.438;19.026;2022-10-16T05:42:41;100505.78;;;10.49;100.00
54512;BME280;40419;47.438;19.026;2022-10-16T05:45:09;100507.66;;;10.34;100.00
54512;BME280;40419;47.438;19.026;2022-10-16T05:47:37;100515.97;;;10.47;100.00
54512;BME280;40419;47.438;19.026;2022-10-16T05:50:05;100514.97;;;10.48;100.00
54512;BME280;40419;47.438;19.026;2022-10-16T05:52:35;100521.66;;;10.52;100.00
54512;BME280;40419;47.438;19.026;2022-10-16T05:55:06;100517.94;;;10.53;100.00
54512;BME280;40419;47.438;19.026;2022-10-16T05:57:34;100518.06;;;10.60;100.00
54512;BME280;40419;47.438;19.026;2022-10-16T06:00:00;100516.44;;;10.66;100.00
54512;BME280;40419;47.438;19.026;2022-10-16T06:02:40;100519.53;;;10.77;100.00
54512;BME280;40419;47.438;19.026;2022-10-16T06:05:08;100516.81;;;10.77;100.00
54512;BME280;40419;47.438;19.026;2022-10-16T06:07:36;100517.38;;;10.88;100.00
54512;BME280;40419;47.438;19.026;2022-10-16T06:10:05;100523.19;;;10.70;99.89
54512;BME280;40419;47.438;19.026;2022-10-16T06:12:37;100536.06;;;10.82;99.64
54512;BME280;40419;47.438;19.026;2022-10-16T06:15:03;100538.41;;;10.86;100.00
54512;BME280;40419;47.438;19.026;2022-10-16T06:17:29;100540.53;;;10.90;100.00
54512;BME280;40419;47.438;19.026;2022-10-16T06:19:57;100548.38;;;10.85;100.00
54512;BME280;40419;47.438;19.026;2022-10-16T06:22:22;100549.13;;;10.79;100.00
54512;BME280;40419;47.438;19.026;2022-10-16T06:24:50;100547.16;;;10.88;100.00
54512;BME280;40419;47.438;19.026;2022-10-16T06:27:20;100555.09;;;10.74;100.00
54512;BME280;40419;47.438;19.026;2022-10-16T06:29:50;100556.13;;;10.88;99.52
54512;BME280;40419;47.438;19.026;2022-10-16T06:32:18;100560.41;;;10.97;100.00
54512;BME280;40419;47.438;19.026;2022-10-16T06:34:46;100564.91;;;11.05;100.00
54512;BME280;40419;47.438;19.026;2022-10-16T06:37:16;100560.16;;;11.44;95.53
54512;BME280;40419;47.438;19.026;2022-10-16T06:39:43;100578.53;;;11.12;96.09
54512;BME280;40419;47.438;19.026;2022-10-16T06:42:09;100585.44;;;11.29;94.86
54512;BME280;40419;47.438;19.026;2022-10-16T06:44:35;100583.72;;;11.43;95.16
54512;BME280;40419;47.438;19.026;2022-10-16T06:47:02;100583.41;;;11.53;93.77
54512;BME280;40419;47.438;19.026;2022-10-16T06:49:28;100582.97;;;11.49;93.88
54512;BME280;40419;47.438;19.026;2022-10-16T06:51:56;100581.38;;;11.77;90.64
54512;BME280;40419;47.438;19.026;2022-10-16T06:54:21;100585.50;;;11.73;90.25
54512;BME280;40419;47.438;19.026;2022-10-16T06:56:51;100575.69;;;11.72;90.51
54512;BME280;40419;47.438;19.026;2022-10-16T06:59:20;100581.41;;;11.83;89.38
54512;BME280;40419;47.438;19.026;2022-10-16T07:01:46;100590.03;;;11.87;88.81
54512;BME280;40419;47.438;19.026;2022-10-16T07:04:11;100598.28;;;11.79;91.19
54512;BME280;40419;47.438;19.026;2022-10-16T07:06:39;100593.56;;;11.87;89.05
54512;BME280;40419;47.438;19.026;2022-10-16T07:09:08;100601.13;;;11.70;89.61
54512;BME280;40419;47.438;19.026;2022-10-16T07:11:37;100604.09;;;11.76;91.04
54512;BME280;40419;47.438;19.026;2022-10-16T07:14:18;100602.50;;;11.81;89.04
54512;BME280;40419;47.438;19.026;2022-10-16T07:16:44;100602.84;;;11.93;90.81
54512;BME280;40419;47.438;19.026;2022-10-16T07:19:12;100612.91;;;12.21;87.62
54512;BME280;40419;47.438;19.026;2022-10-16T07:21:42;100610.97;;;12.15;88.04
54512;BME280;40419;47.438;19.026;2022-10-16T07:24:12;100621.44;;;12.18;87.84
54512;BME280;40419;47.438;19.026;2022-10-16T07:26:42;100622.75;;;12.22;87.82
54512;BME280;40419;47.438;19.026;2022-10-16T07:29:19;100629.28;;;12.06;88.82
54512;BME280;40419;47.438;19.026;2022-10-16T07:31:47;100636.97;;;12.24;89.04
54512;BME280;40419;47.438;19.026;2022-10-16T07:34:17;100635.34;;;12.30;86.33
54512;BME280;40419;47.438;19.026;2022-10-16T07:36:47;100634.00;;;12.19;89.24
54512;BME280;40419;47.438;19.026;2022-10-16T07:39:18;100631.59;;;12.09;89.89
54512;BME280;40419;47.438;19.026;2022-10-16T07:41:49;100622.59;;;12.30;89.58
54512;BME280;40419;47.438;19.026;2022-10-16T07:44:19;100642.81;;;12.49;87.45
54512;BME280;40419;47.438;19.026;2022-10-16T07:46:47;100638.19;;;12.43;88.92
54512;BME280;40419;47.438;19.026;2022-10-16T07:49:17;100643.53;;;12.58;88.67
54512;BME280;40419;47.438;19.026;2022-10-16T07:51:53;100645.34;;;12.51;90.97
54512;BME280;40419;47.438;19.026;2022-10-16T07:54:20;100633.34;;;12.38;88.19
54512;BME280;40419;47.438;19.026;2022-10-16T07:56:50;100640.53;;;12.53;89.26
54512;BME280;40419;47.438;19.026;2022-10-16T07:59:16;100651.28;;;12.61;86.87
54512;BME280;40419;47.438;19.026;2022-10-16T08:01:44;100659.53;;;12.25;86.48
54512;BME280;40419;47.438;19.026;2022-10-16T08:04:10;100667.34;;;12.34;86.67
54512;BME280;40419;47.438;19.026;2022-10-16T08:06:38;100666.44;;;12.49;86.64
54512;BME280;40419;47.438;19.026;2022-10-16T08:12:55;100658.41;;;12.62;86.53
54512;BME280;40419;47.438;19.026;2022-10-16T08:16:00;100665.91;;;12.60;85.57
54512;BME280;40419;47.438;19.026;2022-10-16T08:18:28;100670.00;;;12.49;84.61
54512;BME280;40419;47.438;19.026;2022-10-16T08:21:02;100667.03;;;12.72;85.77
54512;BME280;40419;47.438;19.026;2022-10-16T08:23:28;100661.78;;;12.71;88.00
54512;BME280;40419;47.438;19.026;2022-10-16T08:26:02;100674.78;;;12.75;86.98
54512;BME280;40419;47.438;19.026;2022-10-16T08:28:30;100673.22;;;12.88;86.09
54512;BME280;40419;47.438;19.026;2022-10-16T08:30:56;100687.69;;;12.95;86.46
54512;BME280;40419;47.438;19.026;2022-10-16T08:33:26;100689.25;;;13.11;83.20
54512;BME280;40419;47.438;19.026;2022-10-16T08:35:55;100681.34;;;13.16;84.42
54512;BME280;40419;47.438;19.026;2022-10-16T08:38:22;100684.34;;;13.28;82.72
54512;BME280;40419;47.438;19.026;2022-10-16T08:40:48;100694.59;;;13.26;83.20
54512;BME280;40419;47.438;19.026;2022-10-16T08:48:47;100692.63;;;13.13;83.68
54512;BME280;40419;47.438;19.026;2022-10-16T08:51:26;100692.69;;;13.26;81.70
54512;BME280;40419;47.438;19.026;2022-10-16T08:53:57;100696.81;;;13.16;83.04
54512;BME280;40419;47.438;19.026;2022-10-16T08:56:25;100701.94;;;13.32;82.84
54512;BME280;40419;47.438;19.026;2022-10-16T08:58:59;100699.13;;;13.47;83.16
54512;BME280;40419;47.438;19.026;2022-10-16T09:01:37;100687.47;;;13.60;81.34
54512;BME280;40419;47.438;19.026;2022-10-16T09:10:00;100701.78;;;13.82;81.41
54512;BME280;40419;47.438;19.026;2022-10-16T09:12:56;100709.34;;;13.87;80.09
54512;BME280;40419;47.438;19.026;2022-10-16T09:15:46;100708.72;;;13.85;81.01
54512;BME280;40419;47.438;19.026;2022-10-16T09:18:17;100698.25;;;13.81;79.98
54512;BME280;40419;47.438;19.026;2022-10-16T09:23:27;100699.53;;;13.92;81.48
54512;BME280;40419;47.438;19.026;2022-10-16T09:25:53;100715.47;;;14.02;82.45
54512;BME280;40419;47.438;19.026;2022-10-16T09:28:24;100703.69;;;13.95;79.97
54512;BME280;40419;47.438;19.026;2022-10-16T09:30:52;100698.53;;;14.13;78.39
54512;BME280;40419;47.438;19.026;2022-10-16T09:33:24;100707.75;;;14.19;78.99
54512;BME280;40419;47.438;19.026;2022-10-16T09:35:56;100700.66;;;14.31;78.13
54512;BME280;40419;47.438;19.026;2022-10-16T09:38:28;100706.75;;;14.27;80.72
54512;BME280;40419;47.438;19.026;2022-10-16T09:40:57;100697.13;;;14.58;78.44
54512;BME280;40419;47.438;19.026;2022-10-16T09:46:07;100702.59;;;14.51;78.47
54512;BME280;40419;47.438;19.026;2022-10-16T09:48:42;100697.75;;;14.60;77.00
54512;BME280;40419;47.438;19.026;2022-10-16T09:56:37;100706.41;;;14.77;77.78
54512;BME280;40419;47.438;19.026;2022-10-16T09:59:19;100705.53;;;14.89;76.22
54512;BME280;40419;47.438;19.026;2022-10-16T10:01:54;100707.22;;;14.84;76.76
54512;BME280;40419;47.438;19.026;2022-10-16T10:04:54;100713.09;;;14.94;76.38
54512;BME280;40419;47.438;19.026;2022-10-16T10:07:25;100715.19;;;15.19;76.52
54512;BME280;40419;47.438;19.026;2022-10-16T10:09:52;100716.19;;;15.24;75.29
54512;BME280;40419;47.438;19.026;2022-10-16T10:12:24;100707.56;;;15.34;74.08
54512;BME280;40419;47.438;19.026;2022-10-16T10:14:55;100709.66;;;15.32;74.99
54512;BME280;40419;47.438;19.026;2022-10-16T10:17:28;100713.25;;;15.33;74.38
54512;BME280;40419;47.438;19.026;2022-10-16T10:19:58;100702.13;;;15.28;75.05
54512;BME280;40419;47.438;19.026;2022-10-16T10:22:43;100696.22;;;15.31;75.26
54512;BME280;40419;47.438;19.026;2022-10-16T10:31:20;100694.09;;;15.53;73.97
54512;BME280;40419;47.438;19.026;2022-10-16T10:36:57;100693.38;;;15.71;73.99
54512;BME280;40419;47.438;19.026;2022-10-16T10:39:38;100689.97;;;15.89;72.24
54512;BME280;40419;47.438;19.026;2022-10-16T10:50:29;100679.22;;;16.01;71.86
54512;BME280;40419;47.438;19.026;2022-10-16T10:56:05;100676.41;;;16.07;72.75
54512;BME280;40419;47.438;19.026;2022-10-16T11:07:13;100683.94;;;16.19;71.11
54512;BME280;40419;47.438;19.026;2022-10-16T11:09:47;100686.59;;;16.32;70.95
54512;BME280;40419;47.438;19.026;2022-10-16T11:12:35;100681.63;;;16.47;70.24
54512;BME280;40419;47.438;19.026;2022-10-16T11:15:27;100680.00;;;16.40;68.20
54512;BME280;40419;47.438;19.026;2022-10-16T11:20:33;100681.06;;;16.39;70.57
54512;BME280;40419;47.438;19.026;2022-10-16T11:23:33;100670.72;;;16.41;70.11
54512;BME280;40419;47.438;19.026;2022-10-16T11:26:00;100666.88;;;16.48;69.26
54512;BME280;40419;47.438;19.026;2022-10-16T11:31:13;100666.31;;;16.65;67.38
54512;BME280;40419;47.438;19.026;2022-10-16T11:33:45;100667.34;;;16.71;68.44
54512;BME280;40419;47.438;19.026;2022-10-16T11:36:26;100666.97;;;16.67;69.32
54512;BME280;40419;47.438;19.026;2022-10-16T11:39:11;100670.91;;;16.71;70.25
54512;BME280;40419;47.438;19.026;2022-10-16T11:41:45;100659.91;;;16.78;67.44
54512;BME280;40419;47.438;19.026;2022-10-16T11:44:27;100659.66;;;16.61;67.71
54512;BME280;40419;47.438;19.026;2022-10-16T11:49:40;100663.03;;;16.88;66.22
54512;BME280;40419;47.438;19.026;2022-10-16T11:52:17;100663.03;;;16.88;67.24
54512;BME280;40419;47.438;19.026;2022-10-16T11:57:40;100656.69;;;16.88;68.86
54512;BME280;40419;47.438;19.026;2022-10-16T12:02:49;100663.25;;;16.87;67.58
54512;BME280;40419;47.438;19.026;2022-10-16T12:08:15;100655.75;;;17.00;67.46
54512;BME280;40419;47.438;19.026;2022-10-16T12:10:46;100656.16;;;17.23;66.62
54512;BME280;40419;47.438;19.026;2022-10-16T12:13:34;100647.63;;;17.12;67.71
54512;BME280;40419;47.438;19.026;2022-10-16T12:18:36;100651.94;;;17.39;64.92
54512;BME280;40419;47.438;19.026;2022-10-16T12:21:02;100647.84;;;17.29;65.87
54512;BME280;40419;47.438;19.026;2022-10-16T12:23:37;100648.16;;;17.21;67.52
54512;BME280;40419;47.438;19.026;2022-10-16T12:26:04;100645.03;;;17.36;66.24
54512;BME280;40419;47.438;19.026;2022-10-16T12:28:35;100643.81;;;17.32;65.89
54512;BME280;40419;47.438;19.026;2022-10-16T12:31:04;100644.88;;;17.31;66.11
54512;BME280;40419;47.438;19.026;2022-10-16T12:33:34;100639.50;;;17.24;66.43
54512;BME280;40419;47.438;19.026;2022-10-16T12:36:07;100642.75;;;17.14;68.88
54512;BME280;40419;47.438;19.026;2022-10-16T12:38:46;100632.81;;;17.02;69.90
54512;BME280;40419;47.438;19.026;2022-10-16T12:41:30;100635.38;;;17.15;67.13
54512;BME280;40419;47.438;19.026;2022-10-16T12:44:02;100649.22;;;17.39;65.39
54512;BME280;40419;47.438;19.026;2022-10-16T12:49:21;100643.19;;;17.11;67.59
54512;BME280;40419;47.438;19.026;2022-10-16T12:51:47;100643.53;;;17.22;67.42
54512;BME280;40419;47.438;19.026;2022-10-16T13:07:55;100657.25;;;16.96;68.71
54512;BME280;40419;47.438;19.026;2022-10-16T13:10:31;100651.19;;;16.94;70.78
54512;BME280;40419;47.438;19.026;2022-10-16T13:13:24;100647.84;;;17.11;67.96
54512;BME280;40419;47.438;19.026;2022-10-16T13:19:06;100649.44;;;17.00;68.57
54512;BME280;40419;47.438;19.026;2022-10-16T13:27:07;100655.53;;;17.21;66.07
54512;BME280;40419;47.438;19.026;2022-10-16T13:29:39;100652.47;;;17.10;66.64
54512;BME280;40419;47.438;19.026;2022-10-16T13:32:09;100661.34;;;17.06;66.76
54512;BME280;40419;47.438;19.026;2022-10-16T13:34:46;100658.16;;;16.90;68.47
54512;BME280;40419;47.438;19.026;2022-10-16T13:37:21;100667.75;;;16.74;69.36
54512;BME280;40419;47.438;19.026;2022-10-16T13:39:48;100670.06;;;16.71;70.23
54512;BME280;40419;47.438;19.026;2022-10-16T13:42:27;100670.03;;;16.77;67.11
54512;BME280;40419;47.438;19.026;2022-10-16T13:44:56;100666.41;;;16.83;67.39
54512;BME280;40419;47.438;19.026;2022-10-16T13:47:24;100659.53;;;16.74;68.80
54512;BME280;40419;47.438;19.026;2022-10-16T13:50:05;100672.13;;;16.75;68.52
54512;BME280;40419;47.438;19.026;2022-10-16T13:52:31;100669.53;;;16.87;65.56
54512;BME280;40419;47.438;19.026;2022-10-16T13:54:57;100672.00;;;16.95;65.85
54512;BME280;40419;47.438;19.026;2022-10-16T13:57:24;100669.97;;;16.84;67.93
54512;BME280;40419;47.438;19.026;2022-10-16T13:59:50;100673.56;;;16.59;69.74
54512;BME280;40419;47.438;19.026;2022-10-16T14:02:36;100679.50;;;16.75;69.02
54512;BME280;40419;47.438;19.026;2022-10-16T14:05:08;100678.91;;;16.73;68.47
54512;BME280;40419;47.438;19.026;2022-10-16T14:07:36;100682.84;;;16.77;67.82
54512;BME280;40419;47.438;19.026;2022-10-16T14:10:29;100680.63;;;16.67;68.24
54512;BME280;40419;47.438;19.026;2022-10-16T14:13:01;100676.22;;;16.66;66.93
54512;BME280;40419;47.438;19.026;2022-10-16T14:15:29;100677.34;;;16.58;69.34
54512;BME280;40419;47.438;19.026;2022-10-16T14:17:58;100676.44;;;16.64;67.45
54512;BME280;40419;47.438;19.026;2022-10-16T14:20:31;100675.88;;;16.56;68.87
54512;BME280;40419;47.438;19.026;2022-10-16T14:25:43;100685.69;;;16.38;71.05
54512;BME280;40419;47.438;19.026;2022-10-16T14:28:15;100678.16;;;16.34;71.45
54512;BME280;40419;47.438;19.026;2022-10-16T14:30:52;100682.78;;;16.33;71.57
54512;BME280;40419;47.438;19.026;2022-10-16T14:33:43;100672.34;;;16.23;72.78
54512;BME280;40419;47.438;19.026;2022-10-16T14:38:34;100671.59;;;16.09;72.02
54512;BME280;40419;47.438;19.026;2022-10-16T14:41:02;100681.06;;;16.07;71.13
54512;BME280;40419;47.438;19.026;2022-10-16T14:43:34;100682.31;;;16.11;69.54
54512;BME280;40419;47.438;19.026;2022-10-16T14:46:18;100679.56;;;16.11;72.39
54512;BME280;40419;47.438;19.026;2022-10-16T14:48:49;100681.88;;;16.07;71.39
54512;BME280;40419;47.438;19.026;2022-10-16T14:51:19;100691.00;;;15.94;74.78
54512;BME280;40419;47.438;19.026;2022-10-16T14:53:46;100680.97;;;15.88;73.78
54512;BME280;40419;47.438;19.026;2022-10-16T14:56:18;100683.25;;;15.85;73.58
54512;BME280;40419;47.438;19.026;2022-10-16T14:58:47;100676.31;;;15.89;74.48
54512;BME280;40419;47.438;19.026;2022-10-16T15:01:13;100685.34;;;15.89;74.06
54512;BME280;40419;47.438;19.026;2022-10-16T15:03:41;100674.03;;;15.86;74.33
54512;BME280;40419;47.438;19.026;2022-10-16T15:06:17;100683.72;;;15.75;77.78